Latest Weather Observations for Brisbane Airport

IDQ60901

Issued at 7:22 pm EST Wednesday 1 April 2015 (issued every 10 minutes, with the page automatically refreshed every 10 minutes)

About weather observations | Map of Brisbane area stations | Latest observations for Brisbane area | Other Formats
Station Details ID: 040842 Name: BRISBANE AERO Lat: -27.39 Lon: 153.13 Height: 4.51 m
Data from the previous 72 hours. | See also: Recent months at Brisbane Airport
Date/Time
EST
Tmp

°C
App
Tmp
°C
Dew
Point
°C
Rel
Hum
%
Delta-T

°C
Wind Press
QNH
hPa
Press
MSL
hPa
Rain
since
9 am
mm
Dir
 
Spd
km/h
Gust
km/h
Spd
kts
Gust
kts
01/07:00pm 23.4 23.9 19.3 78 2.6 ESE 15 22 8 12 1019.1 - 0.4
01/06:30pm 23.4 24.0 18.5 74 3.1 SE 13 24 7 13 1018.8 - 0.4
01/06:00pm 22.4 23.5 19.6 84 1.8 E 13 20 7 11 1018.7 1018.7 0.4
01/05:30pm 23.4 23.2 18.6 74 3.0 ESE 17 26 9 14 1018.5 - 0.4
01/05:00pm 23.5 23.3 18.4 73 3.2 ESE 17 26 9 14 1018.4 - 0.4
01/04:30pm 23.5 23.4 18.8 75 3.0 ESE 17 32 9 17 1018.4 - 0.4
01/04:00pm 24.0 23.9 18.8 72 3.3 E 17 26 9 14 1018.4 - 0.4
01/03:30pm 23.5 23.7 18.6 74 3.1 E 15 24 8 13 1018.5 - 0.4
01/03:00pm 24.2 24.3 18.3 69 3.7 E 15 24 8 13 1018.7 1018.7 0.4
01/02:30pm 24.3 24.4 18.3 69 3.8 E 15 30 8 16 1018.9 - 0.4
01/02:00pm 24.6 24.7 18.4 68 3.9 ESE 15 20 8 11 1019.0 - 0.4
01/01:30pm 24.5 24.5 17.2 63 4.5 ESE 13 26 7 14 1019.5 - 0.4
01/01:00pm 24.7 24.1 17.6 64 4.4 ESE 17 26 9 14 1019.7 - 0.4
01/12:30pm 23.1 24.4 18.5 75 2.9 S 9 15 5 8 1020.1 - 0.4
01/12:00pm 22.3 23.5 19.0 81 2.1 S 11 15 6 8 1020.6 1020.6 0.4
01/11:30am 21.2 22.4 19.0 87 1.4 SSW 11 13 6 7 1021.1 - 0.4
01/11:00am 20.7 21.7 18.6 88 1.3 SSW 11 19 6 10 1021.8 - 0.4
01/10:30am 20.0 21.3 18.4 90 1.0 S 9 17 5 9 1022.3 - 0.4
01/10:00am 19.6 19.4 18.5 93 0.7 SSW 17 22 9 12 1022.5 - 0.4
01/09:30am 19.5 19.3 18.5 94 0.6 SSW 17 22 9 12 1022.8 - 0.2
01/09:00am 19.6 19.9 18.8 95 0.5 SSW 15 20 8 11 1023.0 1023.0 126.2
01/08:30am 19.6 19.9 18.8 95 0.5 S 15 19 8 10 1022.9 - 126.2
01/08:00am 19.6 20.3 18.8 95 0.5 S 13 19 7 10 1022.5 - 126.0
01/07:14am 19.3 20.0 18.8 97 0.3 WSW 13 22 7 12 1021.7 - 124.6
01/07:00am 19.5 18.5 18.9 96 0.4 WSW 22 30 12 16 1021.5 - 117.0
01/06:30am 19.4 19.8 18.9 97 0.3 SW 15 19 8 10 1021.1 - 93.2
01/06:00am 19.6 21.3 19.3 98 0.2 S 9 13 5 7 1021.0 1021.0 79.8
01/05:44am 19.9 20.8 19.3 96 0.4 S 13 19 7 10 1020.8 - 71.8
01/05:30am 19.5 20.4 19.2 98 0.2 SSW 13 15 7 8 1020.7 - 69.2
01/05:00am 19.5 21.0 19.0 97 0.3 S 9 11 5 6 1020.5 - 67.6
01/04:45am 19.4 21.5 18.9 97 0.3 SSE 6 11 3 6 1020.3 - 66.0
01/04:30am 19.5 21.0 19.0 97 0.3 E 9 20 5 11 1020.4 - 63.2
01/04:14am 19.8 21.4 19.2 96 0.4 NE 9 13 5 7 1019.4 - 55.4
01/04:00am 19.4 20.5 18.9 97 0.3 SSE 11 19 6 10 1019.4 - 47.6
01/03:53am 19.3 20.0 18.8 97 0.3 S 13 24 7 13 1019.9 - 39.8
01/03:30am 19.4 20.1 18.9 97 0.3 SSE 13 20 7 11 1019.2 - 37.0
01/03:15am 19.4 20.5 18.9 97 0.3 S 11 17 6 9 1019.3 - 36.0
01/03:00am 19.4 19.4 18.9 97 0.3 SSW 17 22 9 12 1019.3 1019.3 34.2
01/02:30am 19.8 20.4 19.5 98 0.2 WSW 15 20 8 11 1019.9 - 31.6
01/02:00am 19.8 21.5 19.3 97 0.3 S 9 13 5 7 1020.2 - 25.0
01/01:40am 19.8 21.1 19.3 97 0.3 S 11 15 6 8 1020.3 - 17.4
01/01:30am 19.7 21.0 19.2 97 0.3 SSW 11 17 6 9 1020.3 - 16.2
01/01:17am 19.7 21.0 19.2 97 0.3 S 11 17 6 9 1020.4 - 15.0
01/01:00am 19.6 20.4 19.1 97 0.3 S 13 19 7 10 1020.5 - 13.0
01/12:44am 19.5 20.3 19.0 97 0.3 S 13 22 7 12 1020.7 - 12.0
01/12:30am 19.6 20.4 19.0 96 0.4 S 13 19 7 10 1021.1 - 10.4
01/12:21am 19.6 20.4 19.0 96 0.4 S 13 19 7 10 1021.2 - 9.2
 
Date/Time
EST
Tmp

°C
App
Tmp
°C
Dew
Point
°C
Rel
Hum
%
Delta-T

°C
Wind Press
QNH
hPa
Press
MSL
hPa
Rain
since
9 am
mm
Dir
 
Spd
km/h
Gust
km/h
Spd
kts
Gust
kts
31/11:52pm 19.9 21.4 18.8 93 0.7 S 9 19 5 10 1021.5 - 5.2
31/11:30pm 20.1 21.2 18.8 92 0.8 S 11 13 6 7 1021.2 - 4.8
31/11:00pm 20.1 20.4 18.8 92 0.8 S 15 19 8 10 1021.4 - 4.6
31/10:30pm 20.5 21.1 18.7 89 1.1 S 13 20 7 11 1021.7 - 4.2
31/10:00pm 20.5 21.6 18.9 90 1.0 S 11 17 6 9 1021.8 - 4.2
31/09:30pm 20.2 21.4 19.1 93 0.7 S 11 17 6 9 1021.9 - 4.2
31/09:00pm 20.4 21.4 18.6 89 1.1 SE 11 19 6 10 1022.1 1022.1 4.0
31/08:30pm 20.2 20.0 18.6 90 1.0 SSE 17 28 9 15 1022.1 - 4.0
31/08:15pm 20.7 21.2 19.3 92 0.9 SE 15 30 8 16 1022.3 - 2.2
31/08:00pm 21.5 22.9 18.6 83 1.8 SSE 9 22 5 12 1022.1 - 1.4
31/07:30pm 21.2 22.3 18.8 86 1.5 S 11 17 6 9 1021.5 - 1.4
31/07:00pm 21.4 23.3 18.9 86 1.6 S 7 11 4 6 1021.1 - 1.4
31/06:30pm 21.5 23.1 19.1 86 1.5 SSE 9 13 5 7 1021.0 - 1.4
31/06:00pm 21.4 23.3 19.0 86 1.5 SSE 7 11 4 6 1020.9 1020.9 1.4
31/05:30pm 21.3 22.6 19.4 89 1.2 SE 11 19 6 10 1020.7 - 1.4
31/05:00pm 21.8 22.2 19.1 84 1.7 SE 15 22 8 12 1020.5 - 0.8
31/04:30pm 23.4 24.8 17.9 71 3.4 ESE 7 11 4 6 1020.2 - 0.4
31/04:00pm 23.1 22.7 18.0 73 3.2 ESE 17 24 9 13 1020.3 - 0.4
31/03:30pm 24.0 23.6 16.3 62 4.7 E 13 19 7 10 1020.2 - 0.4
31/03:00pm 24.1 24.2 16.4 62 4.7 E 11 15 6 8 1020.3 1020.3 0.4
31/02:30pm 24.8 25.0 16.8 61 4.9 E 11 19 6 10 1020.4 - 0.4
31/02:00pm 24.0 24.1 17.4 66 4.1 E 13 19 7 10 1020.6 - 0.4
31/01:30pm 23.8 23.5 16.4 63 4.5 E 13 22 7 12 1021.0 - 0.4
31/01:00pm 24.4 24.3 16.9 63 4.6 E 13 20 7 11 1021.0 - 0.4
31/12:30pm 24.0 24.8 19.0 73 3.2 E 13 19 7 10 1021.3 - 0.4
31/12:00pm 23.2 24.9 19.4 79 2.4 SSE 9 15 5 8 1022.0 1022.0 0.4
31/11:30am 23.3 25.2 19.7 80 2.3 S 9 13 5 7 1022.3 - 0.2
31/11:00am 23.0 24.7 18.5 76 2.8 SE 7 11 4 6 1022.3 - 0.0
31/10:30am 22.8 24.4 19.2 80 2.3 SSE 9 13 5 7 1022.7 - 0.0
31/10:00am 23.1 25.0 19.0 78 2.6 SSE 7 11 4 6 1023.0 - 0.0
31/09:30am 23.9 25.1 18.3 71 3.5 SE 9 13 5 7 1023.1 - 0.0
31/09:00am 24.3 25.8 18.8 71 3.5 ESE 9 15 5 8 1023.0 1023.0 0.0
31/08:30am 23.5 25.0 18.9 75 2.9 S 9 11 5 6 1022.8 - 0.0
31/08:00am 22.7 24.3 18.2 76 2.8 S 7 11 4 6 1022.5 - 0.0
31/07:30am 22.1 23.2 18.1 78 2.5 S 9 11 5 6 1022.2 - 0.0
31/07:00am 21.5 22.6 17.9 80 2.2 S 9 9 5 5 1022.0 - 0.0
31/06:30am 21.1 22.5 17.7 81 2.1 SSW 7 9 4 5 1021.7 - 0.0
31/06:00am 20.6 22.0 17.7 83 1.8 S 7 9 4 5 1021.4 1021.4 0.0
31/05:30am 20.4 21.1 17.1 81 2.0 S 9 13 5 7 1021.3 - 0.0
31/05:00am 20.4 21.0 16.9 80 2.1 SSW 9 11 5 6 1021.2 - 0.0
31/04:30am 20.6 21.7 17.0 80 2.2 SSE 7 11 4 6 1020.9 - 0.0
31/04:00am 20.8 21.9 17.0 79 2.3 SSE 7 11 4 6 1020.9 - 0.0
31/03:30am 20.8 21.9 17.2 80 2.2 S 7 9 4 5 1020.9 - 0.0
31/03:00am 20.9 21.7 17.3 80 2.2 S 9 11 5 6 1021.2 1021.2 0.0
31/02:30am 20.8 21.7 17.5 81 2.0 SSW 9 11 5 6 1021.3 - 0.0
31/02:00am 21.3 22.8 17.7 80 2.2 S 6 7 3 4 1021.7 - 0.0
31/01:30am 21.9 23.3 17.9 78 2.5 SSE 7 9 4 5 1021.8 - 0.0
31/01:00am 22.0 23.1 18.0 78 2.5 E 9 15 5 8 1022.1 - 0.0
31/12:30am 22.7 23.6 17.5 72 3.2 E 9 15 5 8 1022.4 - 0.0
31/12:00am 23.5 24.2 17.0 67 4.0 ESE 9 13 5 7 1022.4 1022.4 0.0
 
Date/Time
EST
Tmp

°C
App
Tmp
°C
Dew
Point
°C
Rel
Hum
%
Delta-T

°C
Wind Press
QNH
hPa
Press
MSL
hPa
Rain
since
9 am
mm
Dir
 
Spd
km/h
Gust
km/h
Spd
kts
Gust
kts
30/11:30pm 23.7 24.2 17.4 68 3.9 E 11 17 6 9 1022.6 - 0.0
30/11:00pm 23.3 24.1 17.3 69 3.7 ESE 9 15 5 8 1022.6 - 0.0
30/10:30pm 23.3 23.9 16.9 67 3.9 E 9 13 5 7 1022.9 - 0.0
30/10:00pm 23.3 23.9 16.9 67 3.9 E 9 11 5 6 1023.1 - 0.0
30/09:30pm 23.6 24.2 16.9 66 4.1 E 9 13 5 7 1023.1 - 0.0
30/09:00pm 23.5 24.2 17.0 67 4.0 E 9 13 5 7 1023.3 1023.3 0.0
30/08:30pm 23.6 23.6 16.2 63 4.5 E 11 17 6 9 1023.0 - 0.0
30/08:00pm 23.6 24.0 16.2 63 4.5 E 9 13 5 7 1023.0 - 0.0
30/07:30pm 23.7 23.8 15.5 60 4.9 E 9 15 5 8 1022.8 - 0.0
30/07:00pm 23.6 23.9 16.0 62 4.6 E 9 15 5 8 1022.5 - 0.0
30/06:30pm 23.5 23.8 16.1 63 4.5 E 9 13 5 7 1022.1 - 0.0
30/06:00pm 23.8 23.8 16.2 62 4.6 E 11 15 6 8 1021.7 1021.7 0.0
30/05:30pm 24.1 24.3 16.8 63 4.5 E 11 17 6 9 1021.4 - 0.0
30/05:00pm 24.6 24.8 16.8 62 4.8 E 11 17 6 9 1021.3 - 0.0
30/04:30pm 24.9 24.1 16.0 57 5.4 NE 15 19 8 10 1021.2 - 0.0
30/04:00pm 25.2 24.4 16.2 57 5.5 ENE 15 20 8 11 1020.7 - 0.0
30/03:30pm 24.8 24.3 15.9 57 5.4 ENE 13 19 7 10 1020.5 - 0.0
30/03:00pm 25.2 24.4 16.2 57 5.5 ENE 15 20 8 11 1020.7 1020.7 0.0
30/02:30pm 25.3 24.3 15.7 55 5.8 ENE 15 22 8 12 1020.9 - 0.0
30/02:00pm 25.9 24.9 16.6 56 5.7 NE 17 28 9 15 1021.1 - 0.0
30/01:30pm 26.7 25.1 16.5 53 6.3 ENE 20 32 11 17 1020.7 - 0.0
30/01:00pm 26.4 25.3 16.3 53 6.2 E 17 26 9 14 1021.6 - 0.0
30/12:30pm 26.3 25.2 16.4 54 6.1 ENE 17 26 9 14 1022.2 - 0.0
30/12:00pm 26.1 24.7 17.1 57 5.6 ENE 20 30 11 16 1022.1 1022.1 0.0
30/11:30am 26.6 26.0 17.5 57 5.7 ENE 17 24 9 13 1023.1 - 0.0
30/11:00am 26.6 26.0 17.5 57 5.7 ENE 17 22 9 12 1023.7 - 0.0
30/10:30am 25.4 25.7 17.0 59 5.2 ENE 11 15 6 8 1024.3 - 0.0
30/10:00am 25.3 25.1 16.7 59 5.3 ENE 13 19 7 10 1024.1 - 0.0
30/09:30am 24.8 24.2 16.6 60 5.0 ENE 15 20 8 11 1023.8 - 0.0
30/09:00am 25.1 25.1 17.2 61 4.9 ENE 13 19 7 10 1024.0 1023.9 0.0
30/08:30am 25.2 24.5 17.3 61 4.9 NE 17 22 9 12 1023.5 - 0.0
30/08:00am 25.4 25.2 17.7 62 4.8 NE 15 20 8 11 1023.5 - 0.0
30/07:30am 23.2 25.0 18.8 76 2.8 SSE 7 15 4 8 1023.0 - 0.0
30/07:00am 22.2 24.5 18.5 79 2.3 E 4 9 2 5 1022.8 - 0.0
30/06:30am 21.3 23.8 18.2 82 1.9 ENE 2 9 1 5 1022.5 - 0.0
30/06:00am 21.7 22.6 18.5 82 2.0 NE 11 15 6 8 1022.4 1022.4 0.0
30/05:30am 23.7 24.2 17.4 68 3.9 NE 11 17 6 9 1021.9 - 0.0
30/05:00am 23.5 24.4 17.5 69 3.7 NE 9 15 5 8 1021.7 - 0.0
30/04:30am 23.6 24.0 17.3 67 3.9 ENE 11 19 6 10 1021.2 - 0.0
30/04:00am 23.4 23.5 17.4 69 3.7 NE 13 17 7 9 1021.0 - 0.0
30/03:30am 23.6 23.6 17.1 67 4.0 NE 13 19 7 10 1021.1 - 0.0
30/03:00am 23.6 23.6 17.3 67 3.9 ENE 13 17 7 9 1021.5 1021.5 0.0
30/02:30am 23.5 23.9 17.3 68 3.8 NE 11 15 6 8 1021.5 - 0.0
30/02:00am 23.4 23.9 17.4 69 3.7 NE 11 15 6 8 1021.7 - 0.0
30/01:30am 23.4 24.2 17.2 68 3.8 ENE 9 11 5 6 1021.7 - 0.0
30/01:00am 23.5 23.9 17.3 68 3.8 ENE 11 15 6 8 1022.0 - 0.0
30/12:30am 23.6 24.0 17.3 67 3.9 ENE 11 17 6 9 1022.3 - 0.0
30/12:00am 23.6 24.0 17.3 67 3.9 ENE 11 15 6 8 1022.4 1022.4 0.0
 
Date/Time
EST
Tmp

°C
App
Tmp
°C
Dew
Point
°C
Rel
Hum
%
Delta-T

°C
Wind Press
QNH
hPa
Press
MSL
hPa
Rain
since
9 am
mm
Dir
 
Spd
km/h
Gust
km/h
Spd
kts
Gust
kts
29/11:30pm 23.0 23.7 17.1 69 3.6 ENE 9 11 5 6 1022.7 - 0.0
29/11:00pm 23.5 24.2 17.0 67 4.0 ENE 9 13 5 7 1022.8 - 0.0
29/10:30pm 23.5 23.9 17.2 67 3.9 ENE 11 15 6 8 1022.5 - 0.0
29/10:00pm 23.5 23.4 17.0 67 4.0 ENE 13 17 7 9 1022.7 - 0.0
29/09:30pm 23.7 23.6 17.0 66 4.1 ENE 13 15 7 8 1023.0 - 0.0
29/09:00pm 23.9 24.1 16.7 64 4.4 ENE 11 17 6 9 1023.1 1023.1 0.0
29/08:30pm 23.8 24.3 16.6 64 4.4 ENE 9 13 5 7 1023.3 - 0.0
29/08:00pm 23.6 24.2 16.9 66 4.1 ENE 9 15 5 8 1022.9 - 0.0
29/07:30pm 23.7 23.9 16.8 65 4.2 ENE 11 13 6 7 1022.5 - 0.0

Latest Capital City Observations: Canberra | Sydney | Melbourne | Brisbane | Adelaide | Perth | Hobart | Darwin

Other Formats:

Comma delimited format used in spreadsheet applications
http://www.bom.gov.au/fwo/IDQ60901/IDQ60901.94578.axf

JavaScript Object Notation format (JSON) in row-major order
http://www.bom.gov.au/fwo/IDQ60901/IDQ60901.94578.json